Sandweiler, Luxembourg
Current Conditions -  °F | °C
As of 2:50 PM on Sunday 25 Jan 2015 (Local Time) from ELLX Reporting Station
Overcast Overcast  
Wind Chill: 34°   Ceiling: 600
Heat Index: 34°   Visibility: 2.8mi
Dew Point: 32°   Wind: 3mph
Humidity: 93%   Direction: NA
Pressure: 30.39"   Gusts: NA
Location:  49.61°N, 6.22°E
Report Text: ELLX 251350Z VRB03KT 4500 BKN006 OVC010 01/00 Q1029 NOSIG
Loading
Personal Weather Stations






























Interactive Weather Map New forecast layout! Learn more

10-Day Weather Forecast

Advertisements
Track Severe Weather on mobile